createdAt,value
2018-01-21T00:04:40.017Z,39.37
2018-01-21T00:14:41.613Z,33.77
2018-01-21T00:24:43.196Z,46.63
2018-01-21T00:34:44.756Z,32.43
2018-01-21T00:44:46.992Z,34.63
2018-01-21T00:54:48.532Z,21.17
2018-01-21T01:04:50.149Z,8.30
2018-01-21T01:14:51.799Z,6.80
2018-01-21T01:24:53.450Z,8.50
2018-01-21T01:34:54.994Z,10.63
2018-01-21T01:44:56.724Z,14.53
2018-01-21T01:54:58.307Z,13.47
2018-01-21T02:04:59.900Z,15.37
2018-01-21T02:15:01.419Z,22.77
2018-01-21T02:25:02.980Z,15.30
2018-01-21T02:35:04.561Z,19.13
2018-01-21T02:45:06.072Z,21.03
2018-01-21T02:55:08.420Z,21.50
2018-01-21T03:05:10.050Z,20.50
2018-01-21T03:15:11.584Z,23.57
2018-01-21T03:25:13.828Z,19.00
2018-01-21T03:35:15.393Z,18.60
2018-01-21T03:45:16.935Z,24.53
2018-01-21T03:55:18.588Z,18.40
2018-01-21T04:05:20.256Z,20.27
2018-01-21T04:15:21.938Z,12.83
2018-01-21T04:25:23.564Z,18.77
2018-01-21T04:35:25.271Z,16.20
2018-01-21T04:45:26.833Z,16.63
2018-01-21T04:55:28.364Z,18.00
2018-01-21T05:05:29.896Z,20.07
2018-01-21T05:15:31.490Z,18.70
2018-01-21T05:25:33.077Z,15.27
2018-01-21T05:35:34.593Z,13.37
2018-01-21T05:45:36.153Z,15.83
2018-01-21T05:55:37.698Z,10.77
2018-01-21T06:05:39.200Z,11.00
2018-01-21T06:15:40.736Z,11.30
2018-01-21T06:25:42.275Z,5.30
2018-01-21T06:35:43.833Z,6.23
2018-01-21T06:45:45.434Z,6.97
2018-01-21T06:55:46.972Z,7.03
2018-01-21T07:05:48.491Z,8.80
2018-01-21T07:15:49.995Z,9.57
2018-01-21T07:25:51.558Z,9.43
2018-01-21T07:35:53.111Z,13.00
2018-01-21T07:45:55.411Z,16.43
2018-01-21T07:55:57.047Z,14.30
2018-01-21T08:05:58.680Z,17.77
2018-01-21T08:16:00.184Z,20.60
2018-01-21T08:26:01.678Z,21.13
2018-01-21T08:36:09.454Z,19.77
2018-01-21T08:46:11.022Z,17.50
2018-01-21T08:56:12.587Z,14.60
2018-01-21T09:06:15.059Z,37.70
2018-01-21T09:16:16.559Z,24.53
2018-01-21T09:26:18.198Z,17.53
2018-01-21T09:36:20.592Z,22.97
2018-01-21T09:46:22.192Z,15.80
2018-01-21T09:56:23.894Z,9.87
2018-01-21T10:06:25.540Z,17.53
2018-01-21T10:16:27.158Z,11.60
2018-01-21T10:26:28.824Z,6.50
2018-01-21T10:36:31.204Z,7.40
2018-01-21T10:46:32.821Z,8.57
2018-01-21T10:56:34.455Z,7.77
2018-01-21T11:06:36.897Z,5.07
2018-01-21T11:16:38.492Z,7.87
2018-01-21T11:26:40.048Z,4.70
2018-01-21T11:36:41.693Z,6.10
2018-01-21T11:46:43.342Z,5.90
2018-01-21T11:56:44.962Z,3.60
2018-01-21T12:06:46.673Z,5.37
2018-01-21T12:16:48.457Z,4.97
2018-01-21T12:26:50.247Z,9.33
2018-01-21T12:36:51.908Z,4.67
2018-01-21T12:46:53.563Z,2.50
2018-01-21T12:56:55.247Z,26.97
2018-01-21T13:06:56.858Z,6.30
2018-01-21T13:16:58.446Z,9.10
2018-01-21T13:27:00.089Z,5.60
2018-01-21T13:37:01.726Z,5.83
2018-01-21T13:47:03.323Z,8.37
2018-01-21T13:57:05.704Z,4.63
2018-01-21T14:07:07.314Z,8.33
2018-01-21T14:17:09.136Z,3.63
2018-01-21T14:27:10.893Z,10.27
2018-01-21T14:37:12.446Z,21.53
2018-01-21T14:47:14.814Z,5.50
2018-01-21T14:57:16.456Z,5.53
2018-01-21T15:07:18.053Z,12.60
2018-01-21T15:17:19.677Z,6.60
2018-01-21T15:27:22.032Z,8.10
2018-01-21T15:37:23.588Z,4.00
2018-01-21T15:47:25.975Z,10.20
2018-01-21T15:57:27.599Z,6.77
2018-01-21T16:07:29.279Z,6.00
2018-01-21T16:17:30.884Z,8.17
2018-01-21T16:27:32.619Z,11.80
2018-01-21T16:37:53.261Z,6.90
2018-01-21T16:47:55.629Z,12.97
2018-01-21T16:57:57.299Z,8.33
2018-01-21T17:07:58.966Z,8.40
2018-01-21T17:18:00.608Z,10.43
2018-01-21T17:28:02.209Z,8.83
2018-01-21T17:38:04.635Z,10.83
2018-01-21T17:48:06.272Z,16.43
2018-01-21T17:58:07.858Z,15.73
2018-01-21T18:08:09.448Z,13.50
2018-01-21T18:18:11.112Z,16.93
2018-01-21T18:28:12.777Z,17.97
2018-01-21T18:38:15.197Z,36.10
2018-01-21T18:48:16.923Z,23.60
2018-01-21T18:58:18.515Z,19.40
2018-01-21T19:08:20.087Z,15.97
2018-01-21T19:18:21.708Z,19.37
2018-01-21T19:28:23.429Z,23.23
2018-01-21T19:38:25.042Z,14.80
2018-01-21T19:48:26.696Z,18.10
2018-01-21T19:58:28.336Z,17.30
2018-01-21T20:08:30.056Z,15.60
2018-01-21T20:18:31.673Z,16.03
2018-01-21T20:28:34.017Z,18.73
2018-01-21T20:38:35.680Z,17.77
2018-01-21T20:48:37.459Z,21.43
2018-01-21T20:58:39.056Z,16.33
2018-01-21T21:08:40.757Z,23.53
2018-01-21T21:18:42.561Z,18.90
2018-01-21T21:28:44.264Z,19.77
2018-01-21T21:38:45.935Z,14.83
2018-01-21T21:48:47.555Z,28.90
2018-01-21T21:58:49.292Z,17.80
2018-01-21T22:08:51.032Z,18.93
2018-01-21T22:18:52.949Z,19.57
2018-01-21T22:28:54.611Z,17.30
2018-01-21T22:38:56.386Z,15.97
2018-01-21T22:48:58.081Z,20.23
2018-01-21T22:58:59.893Z,20.70
2018-01-21T23:09:01.540Z,22.37
2018-01-21T23:19:04.566Z,20.27
2018-01-21T23:29:06.287Z,26.70
2018-01-21T23:39:07.851Z,16.90
2018-01-21T23:49:09.472Z,24.90
2018-01-21T23:59:11.162Z,24.20
